Time;durP1;ratioP1;P1;durP2;ratioP2;P2;SDS_P1;SDS_P2;PMS_P1;PMS_P2;Temp;Humidity;BMP_temperature;BMP_pressure;BME280_temperature;BME280_humidity;BME280_pressure;Samples;Min_cycle;Max_cycle;Signal;HPM_P1;HPM_P2
2024/01/17 00:01:58;;;;;;;4.38;1.52;;;16.60;53.30;;;;;;4859497;29;20195;-78
2024/01/17 00:04:24;;;;;;;5.93;1.38;;;16.60;53.30;;;;;;4834222;29;20221;-78
2024/01/17 00:06:49;;;;;;;4.22;1.20;;;16.60;53.30;;;;;;4844027;29;20562;-78
2024/01/17 00:09:18;;;;;;;3.72;0.93;;;16.60;53.30;;;;;;4843547;29;20712;-78
2024/01/17 00:11:44;;;;;;;4.97;1.10;;;16.60;53.50;;;;;;4843983;29;20192;-78
2024/01/17 00:14:10;;;;;;;2.92;1.00;;;16.60;53.40;;;;;;4860047;29;20604;-78
2024/01/17 00:16:36;;;;;;;3.45;1.00;;;16.50;53.40;;;;;;4828528;29;20169;-78
2024/01/17 00:19:02;;;;;;;1.77;1.15;;;16.60;53.50;;;;;;4843775;29;20165;-78
2024/01/17 00:21:28;;;;;;;3.15;1.10;;;16.50;53.20;;;;;;4843699;29;20213;-78
2024/01/17 00:23:59;;;;;;;5.32;1.38;;;16.50;53.30;;;;;;4843651;29;20673;-77
2024/01/17 00:26:24;;;;;;;2.40;1.10;;;16.60;53.40;;;;;;4829614;29;20740;-79
2024/01/17 00:28:50;;;;;;;4.40;1.38;;;16.50;53.40;;;;;;4863914;29;20196;-78
2024/01/17 00:31:16;;;;;;;4.25;1.33;;;16.50;53.40;;;;;;4831859;29;20532;-78
2024/01/17 00:33:42;;;;;;;4.28;1.20;;;16.50;53.50;;;;;;4831713;29;20180;-79
2024/01/17 00:36:08;;;;;;;3.50;1.55;;;16.50;53.40;;;;;;4863435;29;20173;-78
2024/01/17 00:38:37;;;;;;;3.22;1.23;;;16.50;53.50;;;;;;4863830;29;20247;-78
2024/01/17 00:41:08;;;;;;;3.22;1.13;;;16.50;53.20;;;;;;4831178;29;20625;-78
2024/01/17 00:43:34;;;;;;;2.75;1.25;;;16.50;53.40;;;;;;4831204;29;20220;-78
2024/01/17 00:46:00;;;;;;;1.88;1.17;;;16.50;53.50;;;;;;4863422;29;20624;-79
2024/01/17 00:48:28;;;;;;;3.13;1.05;;;16.40;53.10;;;;;;4863636;29;20632;-78
2024/01/17 00:50:54;;;;;;;3.80;1.20;;;16.50;53.40;;;;;;4830788;29;20252;-78
2024/01/17 00:53:22;;;;;;;3.67;1.30;;;16.50;53.20;;;;;;4862930;29;20644;-77
2024/01/17 00:55:48;;;;;;;2.95;1.20;;;16.50;53.40;;;;;;4863579;29;20165;-78
2024/01/17 00:58:13;;;;;;;3.60;1.30;;;16.50;53.20;;;;;;4864346;29;20248;-78
2024/01/17 01:00:42;;;;;;;2.55;1.27;;;16.40;53.30;;;;;;4864094;29;20244;-78
2024/01/17 01:03:08;;;;;;;2.72;1.08;;;16.50;53.40;;;;;;4835275;29;20223;-78
2024/01/17 01:05:34;;;;;;;2.08;1.10;;;16.50;53.30;;;;;;4862557;29;20175;-78
2024/01/17 01:08:00;;;;;;;3.08;1.30;;;16.40;53.10;;;;;;4862932;29;20169;-79
2024/01/17 01:10:26;;;;;;;4.75;1.20;;;16.40;53.30;;;;;;4863201;29;20496;-79
2024/01/17 01:12:56;;;;;;;2.38;1.10;;;16.30;53.20;;;;;;4863477;29;20172;-77
2024/01/17 01:15:22;;;;;;;2.97;1.20;;;16.40;53.30;;;;;;4830620;29;20669;-78
2024/01/17 01:17:48;;;;;;;4.28;1.27;;;16.40;53.40;;;;;;4846669;29;20184;-78
2024/01/17 01:20:14;;;;;;;4.68;1.20;;;16.40;53.20;;;;;;4863056;29;20173;-78
2024/01/17 01:22:39;;;;;;;3.08;1.35;;;16.40;53.20;;;;;;4863076;29;20185;-78
2024/01/17 01:25:05;;;;;;;2.42;1.20;;;16.40;53.20;;;;;;4846530;29;20156;-79
2024/01/17 01:27:35;;;;;;;3.08;1.13;;;16.40;53.30;;;;;;4846845;29;20244;-78
2024/01/17 01:30:04;;;;;;;3.58;1.20;;;16.40;53.20;;;;;;4814850;29;20531;-78
2024/01/17 01:32:29;;;;;;;3.83;1.23;;;16.40;53.30;;;;;;4829740;29;20204;-78
2024/01/17 01:34:55;;;;;;;2.72;1.17;;;16.40;53.40;;;;;;4862916;29;20157;-78
2024/01/17 01:37:22;;;;;;;4.30;1.30;;;16.40;53.20;;;;;;4845141;29;20544;-78
2024/01/17 01:39:48;;;;;;;2.83;1.20;;;16.40;53.30;;;;;;4841796;29;20209;-79
2024/01/17 01:42:14;;;;;;;4.72;1.48;;;16.40;53.20;;;;;;4830686;29;20174;-78
2024/01/17 01:44:41;;;;;;;3.50;1.45;;;16.40;53.20;;;;;;4812114;29;20203;-79
2024/01/17 01:47:08;;;;;;;2.92;1.15;;;16.40;53.20;;;;;;4860276;29;20252;-79
2024/01/17 01:49:35;;;;;;;3.80;1.10;;;16.40;53.20;;;;;;4862236;29;20231;-79
2024/01/17 01:52:01;;;;;;;2.97;1.20;;;16.40;53.30;;;;;;4861824;29;20177;-78
2024/01/17 01:54:27;;;;;;;3.45;1.08;;;16.40;53.20;;;;;;4862765;29;20180;-78
2024/01/17 01:56:53;;;;;;;3.08;1.23;;;16.40;53.10;;;;;;4862454;29;20180;-79
2024/01/17 01:59:19;;;;;;;2.55;1.00;;;16.30;53.10;;;;;;4862659;29;20160;-78
2024/01/17 02:01:45;;;;;;;3.00;1.13;;;16.40;53.10;;;;;;4845691;29;20525;-78
2024/01/17 02:04:11;;;;;;;1.00;0.90;;;16.30;53.00;;;;;;4844950;29;20267;-78
2024/01/17 02:06:37;;;;;;;3.25;1.30;;;16.40;52.90;;;;;;4862047;29;20704;-79
2024/01/17 02:09:06;;;;;;;3.05;1.02;;;16.30;53.10;;;;;;4845572;29;20369;-79
2024/01/17 02:11:31;;;;;;;1.50;0.98;;;16.30;53.00;;;;;;4829692;29;20192;-78
2024/01/17 02:13:58;;;;;;;3.00;1.20;;;16.30;53.10;;;;;;4845732;29;20271;-78
2024/01/17 02:16:24;;;;;;;2.50;1.02;;;16.30;53.00;;;;;;4862153;29;20169;-78
2024/01/17 02:18:50;;;;;;;5.78;1.38;;;16.30;52.90;;;;;;4845597;29;20251;-78
2024/01/17 02:21:16;;;;;;;2.70;1.30;;;16.30;53.10;;;;;;4845676;29;20190;-79
2024/01/17 02:23:43;;;;;;;2.33;1.00;;;16.30;53.20;;;;;;4845282;29;20544;-78
2024/01/17 02:26:11;;;;;;;2.42;1.27;;;16.30;52.80;;;;;;4845447;29;20244;-79
2024/01/17 02:28:39;;;;;;;3.88;1.13;;;16.30;53.10;;;;;;4828897;29;20199;-78
2024/01/17 02:31:04;;;;;;;4.80;1.25;;;16.30;53.10;;;;;;4828853;29;20185;-79
2024/01/17 02:33:30;;;;;;;1.83;1.02;;;16.30;53.80;;;;;;4862134;29;20169;-78
2024/01/17 02:35:56;;;;;;;2.85;1.10;;;16.30;53.10;;;;;;4845402;29;20176;-79
2024/01/17 02:38:22;;;;;;;2.30;1.13;;;16.30;53.20;;;;;;4845343;29;20173;-79
2024/01/17 02:40:47;;;;;;;3.58;1.08;;;16.30;53.00;;;;;;4866355;29;20205;-79
2024/01/17 02:43:16;;;;;;;2.25;1.05;;;16.30;52.90;;;;;;4880355;29;20667;-79
2024/01/17 02:45:42;;;;;;;1.77;1.10;;;16.30;52.90;;;;;;4836183;29;20246;-79
2024/01/17 02:48:11;;;;;;;2.00;1.23;;;16.30;53.00;;;;;;4843058;29;20177;-79
2024/01/17 02:50:39;;;;;;;2.78;1.02;;;16.30;52.90;;;;;;4840246;29;20198;-79
2024/01/17 02:53:04;;;;;;;2.03;0.93;;;16.40;52.90;;;;;;4844738;29;20601;-79
2024/01/17 02:55:38;;;;;;;1.92;1.00;;;16.30;52.90;;;;;;4860388;29;20624;-78
2024/01/17 02:58:08;;;;;;;3.88;1.30;;;16.30;52.80;;;;;;4860458;29;20169;-78
2024/01/17 03:00:34;;;;;;;3.33;1.30;;;16.30;52.90;;;;;;4844113;29;20538;-79
2024/01/17 03:03:00;;;;;;;4.50;1.30;;;16.30;52.70;;;;;;4861355;29;20823;-79
2024/01/17 03:05:25;;;;;;;3.00;1.40;;;16.30;53.00;;;;;;4861438;29;20259;-79
2024/01/17 03:07:51;;;;;;;2.83;0.93;;;16.20;53.00;;;;;;4861155;29;20157;-78
2024/01/17 03:10:17;;;;;;;4.25;1.25;;;16.20;52.90;;;;;;4847580;29;20286;-79
2024/01/17 03:12:43;;;;;;;4.03;1.15;;;16.20;52.80;;;;;;4863028;29;20588;-79
2024/01/17 03:15:10;;;;;;;2.45;1.10;;;16.20;52.90;;;;;;4879595;29;20175;-79
2024/01/17 03:17:36;;;;;;;2.67;1.13;;;16.20;52.80;;;;;;4879514;29;20568;-79
2024/01/17 03:20:03;;;;;;;2.97;1.20;;;16.20;52.90;;;;;;4864083;29;20218;-78
2024/01/17 03:22:29;;;;;;;5.05;1.20;;;16.20;52.80;;;;;;4844805;29;20165;-79
2024/01/17 03:24:54;;;;;;;1.75;1.17;;;16.20;52.80;;;;;;4861259;29;20232;-79
2024/01/17 03:27:20;;;;;;;4.38;1.20;;;16.20;52.80;;;;;;4860806;29;20187;-79
2024/01/17 03:29:46;;;;;;;2.50;1.00;;;16.20;52.60;;;;;;4860820;29;20636;-78
2024/01/17 03:32:11;;;;;;;1.98;0.80;;;16.20;52.70;;;;;;4844352;29;20161;-78
2024/01/17 03:34:40;;;;;;;2.05;1.27;;;16.20;52.80;;;;;;4844245;29;20172;-77
2024/01/17 03:37:06;;;;;;;2.10;0.80;;;16.20;52.70;;;;;;4842914;29;20551;-78
2024/01/17 03:39:33;;;;;;;2.63;0.88;;;16.20;52.80;;;;;;4860771;29;20164;-79
2024/01/17 03:41:59;;;;;;;2.67;1.30;;;16.20;52.90;;;;;;4843700;29;20191;-77
2024/01/17 03:44:25;;;;;;;1.83;1.20;;;16.20;52.80;;;;;;4828980;29;20625;-78
2024/01/17 03:46:51;;;;;;;2.65;1.00;;;16.20;52.60;;;;;;4829001;29;20551;-79
2024/01/17 03:49:17;;;;;;;1.20;0.80;;;16.20;52.70;;;;;;4844470;29;20161;-78
2024/01/17 03:51:43;;;;;;;2.28;1.02;;;16.20;52.80;;;;;;4843338;29;20173;-78
2024/01/17 03:54:12;;;;;;;2.75;1.08;;;16.20;52.80;;;;;;4844012;29;20683;-78
2024/01/17 03:56:38;;;;;;;2.70;1.10;;;16.20;52.80;;;;;;4827627;29;20196;-78
2024/01/17 03:59:07;;;;;;;2.95;1.13;;;16.20;52.80;;;;;;4860581;29;20164;-78
2024/01/17 04:01:33;;;;;;;2.45;1.02;;;16.20;52.80;;;;;;4827610;29;20189;-78
2024/01/17 04:03:58;;;;;;;1.38;1.05;;;16.20;52.80;;;;;;4843205;29;20220;-79
2024/01/17 04:06:25;;;;;;;1.63;0.88;;;16.10;52.80;;;;;;4843653;29;20165;-79
2024/01/17 04:08:58;;;;;;;3.75;1.10;;;16.20;52.80;;;;;;4860237;29;20212;-79
2024/01/17 04:11:24;;;;;;;1.85;1.10;;;16.10;52.70;;;;;;4828843;29;20189;-78
2024/01/17 04:13:51;;;;;;;1.60;1.08;;;16.20;52.70;;;;;;4843907;29;20192;-78
2024/01/17 04:16:17;;;;;;;1.85;1.10;;;16.20;52.70;;;;;;4860437;29;20177;-79
2024/01/17 04:18:43;;;;;;;1.48;0.93;;;16.20;52.60;;;;;;4860456;29;20169;-78
2024/01/17 04:21:15;;;;;;;2.17;1.10;;;16.20;52.80;;;;;;4860536;29;20187;-78
2024/01/17 04:23:41;;;;;;;1.42;0.93;;;16.10;52.70;;;;;;4866576;29;20191;-77
2024/01/17 04:26:06;;;;;;;2.20;0.93;;;16.10;52.70;;;;;;4878809;29;20155;-77
2024/01/17 04:28:36;;;;;;;2.85;1.20;;;16.10;52.60;;;;;;4878457;29;20196;-78
2024/01/17 04:31:02;;;;;;;1.77;0.90;;;16.20;52.60;;;;;;4827793;29;20702;-79
2024/01/17 04:33:27;;;;;;;3.05;1.00;;;16.20;52.60;;;;;;4828479;29;20184;-78
2024/01/17 04:35:53;;;;;;;1.98;0.93;;;16.20;52.60;;;;;;4843639;29;20165;-79
2024/01/17 04:38:20;;;;;;;4.28;1.20;;;16.20;52.60;;;;;;4859752;29;20168;-77
2024/01/17 04:40:46;;;;;;;1.30;1.08;;;16.10;52.60;;;;;;4859992;29;20167;-78
2024/01/17 04:43:11;;;;;;;1.45;0.90;;;16.20;52.40;;;;;;4859289;29;20568;-78
2024/01/17 04:45:37;;;;;;;1.35;0.85;;;16.20;52.60;;;;;;4860399;29;20617;-78
2024/01/17 04:48:07;;;;;;;2.38;1.13;;;16.10;52.50;;;;;;4843546;29;20641;-79
2024/01/17 04:50:33;;;;;;;1.02;0.80;;;16.20;52.60;;;;;;4829745;29;20200;-77
2024/01/17 04:52:59;;;;;;;1.95;0.90;;;16.10;52.50;;;;;;4859303;29;20181;-78
2024/01/17 04:55:25;;;;;;;1.83;1.10;;;16.10;52.50;;;;;;4859584;29;20256;-78
2024/01/17 04:57:51;;;;;;;2.55;1.10;;;16.20;52.60;;;;;;4860264;29;20264;-78
2024/01/17 05:00:16;;;;;;;1.95;0.95;;;16.10;52.50;;;;;;4860171;29;20233;-78
2024/01/17 05:02:42;;;;;;;2.17;1.10;;;16.10;52.40;;;;;;4859782;29;20204;-78
2024/01/17 05:05:11;;;;;;;2.55;1.25;;;16.20;52.40;;;;;;4859963;29;20172;-78
2024/01/17 05:07:37;;;;;;;2.30;1.00;;;16.10;52.50;;;;;;4842271;29;20193;-78
2024/01/17 05:10:04;;;;;;;1.80;1.00;;;16.10;52.60;;;;;;4873772;29;20706;-78
2024/01/17 05:12:29;;;;;;;2.30;1.00;;;16.10;52.50;;;;;;4878756;29;20679;-78
2024/01/17 05:14:55;;;;;;;2.38;0.98;;;16.10;52.50;;;;;;4864948;29;20176;-78
2024/01/17 05:17:21;;;;;;;2.03;0.77;;;16.10;52.60;;;;;;4864714;29;20172;-78
2024/01/17 05:19:46;;;;;;;2.17;1.02;;;16.10;52.50;;;;;;4873425;29;20968;-77
2024/01/17 05:22:14;;;;;;;3.53;1.10;;;16.10;52.50;;;;;;4846302;29;20248;-77
2024/01/17 05:24:40;;;;;;;3.00;1.10;;;16.10;52.50;;;;;;4863056;29;20274;-78
2024/01/17 05:27:05;;;;;;;1.13;0.80;;;16.10;52.50;;;;;;4831146;29;20679;-78
2024/01/17 05:29:37;;;;;;;1.52;1.00;;;16.10;52.60;;;;;;4862818;29;20580;-77
2024/01/17 05:32:03;;;;;;;2.00;1.33;;;16.10;52.40;;;;;;4830689;29;20197;-81
2024/01/17 05:34:29;;;;;;;2.30;1.00;;;16.20;52.40;;;;;;4862971;29;20187;-80
2024/01/17 05:36:55;;;;;;;1.65;1.00;;;16.10;52.40;;;;;;4879837;29;20512;-78
2024/01/17 05:39:20;;;;;;;3.05;1.10;;;16.10;52.40;;;;;;4881417;29;20539;-79
2024/01/17 05:41:47;;;;;;;1.27;0.85;;;16.10;52.30;;;;;;4881310;29;20164;-78
2024/01/17 05:44:13;;;;;;;2.42;0.82;;;16.10;52.40;;;;;;4849820;29;20202;-78
2024/01/17 05:46:38;;;;;;;1.25;0.90;;;16.10;52.40;;;;;;4864493;29;20177;-78
2024/01/17 05:49:07;;;;;;;2.05;0.90;;;16.10;52.50;;;;;;4864537;29;20172;-78
2024/01/17 05:51:32;;;;;;;1.30;1.10;;;16.10;52.40;;;;;;4832223;29;20196;-78
2024/01/17 05:53:58;;;;;;;2.40;0.90;;;16.10;52.40;;;;;;4864461;29;20186;-78
2024/01/17 05:56:25;;;;;;;2.17;0.95;;;16.10;52.40;;;;;;4864701;29;20652;-78
2024/01/17 05:58:50;;;;;;;1.77;0.95;;;16.10;52.50;;;;;;4862469;29;20185;-78
2024/01/17 06:01:16;;;;;;;2.50;1.52;;;16.10;52.50;;;;;;4862236;29;20221;-78
2024/01/17 06:03:42;;;;;;;2.72;1.00;;;16.10;52.50;;;;;;4863918;29;20311;-79
2024/01/17 06:06:07;;;;;;;1.70;0.90;;;16.10;52.50;;;;;;4844169;29;20238;-79
2024/01/17 06:08:33;;;;;;;1.48;1.00;;;16.10;52.50;;;;;;4844219;29;20232;-80
2024/01/17 06:11:01;;;;;;;3.70;1.17;;;16.10;52.50;;;;;;4831565;29;20192;-80
2024/01/17 06:13:26;;;;;;;1.20;0.98;;;16.10;52.50;;;;;;4864443;29;20192;-79
2024/01/17 06:15:56;;;;;;;1.90;1.00;;;16.10;53.20;;;;;;4864860;29;20197;-80
2024/01/17 06:18:22;;;;;;;3.28;1.10;;;16.10;52.40;;;;;;4818968;29;20205;-79
2024/01/17 06:20:48;;;;;;;1.35;0.95;;;16.10;52.50;;;;;;4844766;29;20173;-79
2024/01/17 06:23:14;;;;;;;2.47;1.02;;;16.10;52.50;;;;;;4853967;29;20197;-80
2024/01/17 06:25:39;;;;;;;1.50;0.95;;;16.10;52.40;;;;;;4846729;29;20196;-79
2024/01/17 06:28:05;;;;;;;1.00;0.90;;;16.10;52.30;;;;;;4846780;29;20172;-79
2024/01/17 06:30:31;;;;;;;2.05;0.90;;;16.10;52.40;;;;;;4861623;29;20184;-78
2024/01/17 06:32:57;;;;;;;2.00;0.90;;;16.10;52.40;;;;;;4845107;29;20225;-78
2024/01/17 06:35:22;;;;;;;1.65;0.85;;;16.20;52.00;;;;;;4845782;29;20280;-79
2024/01/17 06:37:48;;;;;;;1.83;0.80;;;16.30;51.80;;;;;;4845389;29;20231;-78
2024/01/17 06:40:14;;;;;;;3.35;1.30;;;16.30;51.70;;;;;;4861805;29;20189;-78
2024/01/17 06:42:40;;;;;;;1.95;1.05;;;16.40;51.50;;;;;;4861770;29;20185;-79
2024/01/17 06:45:06;;;;;;;1.60;0.95;;;16.50;51.40;;;;;;4862135;29;20175;-78
2024/01/17 06:47:31;;;;;;;1.60;1.00;;;16.50;51.60;;;;;;4845254;29;20189;-78
2024/01/17 06:49:57;;;;;;;1.40;0.95;;;16.40;51.50;;;;;;4845249;29;20199;-79
2024/01/17 06:52:31;;;;;;;2.72;1.00;;;16.50;51.50;;;;;;4810731;29;20201;-78
2024/01/17 06:54:58;;;;;;;0.80;0.80;;;16.50;51.40;;;;;;4840675;29;20201;-78
2024/01/17 06:57:28;;;;;;;1.98;1.10;;;16.40;51.40;;;;;;4858584;29;20715;-79
2024/01/17 06:59:54;;;;;;;1.75;1.00;;;16.40;51.40;;;;;;4841926;29;20657;-79
2024/01/17 07:02:20;;;;;;;1.38;1.02;;;16.40;51.40;;;;;;4844299;29;20165;-79
2024/01/17 07:04:46;;;;;;;1.02;0.90;;;16.40;51.60;;;;;;4826919;29;20194;-79
2024/01/17 07:07:15;;;;;;;2.03;0.70;;;16.40;51.70;;;;;;4857283;29;20180;-79
2024/01/17 07:09:41;;;;;;;2.20;1.02;;;16.30;51.40;;;;;;4825798;29;20258;-79
2024/01/17 07:12:07;;;;;;;1.15;0.90;;;16.40;51.30;;;;;;4811152;29;20166;-79
2024/01/17 07:14:33;;;;;;;1.95;1.10;;;16.40;51.20;;;;;;4826365;29;20165;-79
2024/01/17 07:16:58;;;;;;;3.20;1.13;;;16.50;51.10;;;;;;4856370;29;20206;-79
2024/01/17 07:19:24;;;;;;;1.08;0.82;;;16.60;50.80;;;;;;4828285;29;20713;-79
2024/01/17 07:21:50;;;;;;;1.60;0.88;;;16.60;50.90;;;;;;4822939;29;20197;-80
2024/01/17 07:24:16;;;;;;;1.60;0.90;;;16.60;50.70;;;;;;4841718;29;20231;-81
2024/01/17 07:26:42;;;;;;;1.10;1.00;;;16.60;50.60;;;;;;4840984;29;20260;-83
2024/01/17 07:29:24;;;;;;;1.67;0.90;;;16.60;50.50;;;;;;4828812;29;20189;-83
2024/01/17 07:32:48;;;;;;;;;;;;;;;;;;;;;
2024/01/17 07:36:31;;;;;;;2.35;0.98;;;16.70;50.40;;;;;;4814421;29;20246;-85
2024/01/17 07:38:37;;;;;;;2.10;0.93;;;16.70;50.30;;;;;;4777661;29;20667;-86
2024/01/17 08:59:16;;;;;;;3.92;1.08;;;16.80;50.80;;;;;;4880623;29;20172;-87
2024/01/17 09:02:04;;;;;;;3.97;1.10;;;16.90;50.80;;;;;;4847923;29;20172;-87
2024/01/17 09:05:20;;;;;;;3.17;1.20;;;16.90;51.20;;;;;;4822888;29;20236;-86
2024/01/17 09:08:34;;;;;;;;;;;;;;;;;;;;;
2024/01/17 09:11:21;;;;;;;;;;;;;;;;;;;;;
2024/01/17 09:18:29;;;;;;;;;;;;;;;;;;;;;
2024/01/17 09:21:50;;;;;;;4.82;1.25;;;17.10;50.80;;;;;;4576576;31;20666;-87
2024/01/17 09:55:16;;;;;;;;;;;;;;;;;;;;;
2024/01/17 09:57:57;;;;;;;5.20;1.00;;;17.10;52.00;;;;;;6175558;22;20198;-85
2024/01/17 10:00:36;;;;;;;5.85;1.30;;;17.00;51.90;;;;;;6329965;22;20204;-84
2024/01/17 10:07:10;;;;;;;4.10;1.27;;;17.10;51.90;;;;;;6299794;22;20174;-84
2024/01/17 10:13:18;;;;;;;9.85;1.85;;;17.00;51.60;;;;;;6197325;23;20190;-85
2024/01/17 10:15:46;;;;;;;3.10;1.05;;;17.00;52.00;;;;;;6197250;23;20146;-82
2024/01/17 10:19:00;;;;;;;3.63;1.33;;;17.10;52.00;;;;;;6196805;23;20154;-82
2024/01/17 10:21:33;;;;;;;9.38;1.50;;;17.10;52.00;;;;;;6118025;23;20150;-84
2024/01/17 10:24:05;;;;;;;2.80;1.08;;;17.10;52.10;;;;;;6138762;23;20195;-83
2024/01/17 10:26:32;;;;;;;5.55;1.15;;;17.00;52.20;;;;;;6138084;23;20214;-83
2024/01/17 10:29:18;;;;;;;4.30;1.15;;;17.10;52.30;;;;;;6165174;23;20227;-86
2024/01/17 10:32:10;;;;;;;7.38;1.30;;;17.10;52.10;;;;;;6140406;23;20174;-83
2024/01/17 10:35:23;;;;;;;4.47;1.08;;;17.00;52.40;;;;;;6143752;23;20160;-86
2024/01/17 10:38:10;;;;;;;3.67;1.23;;;17.00;52.20;;;;;;6111293;23;20156;-83
2024/01/17 10:40:44;;;;;;;3.88;1.20;;;17.00;52.30;;;;;;6084709;23;20156;-83
2024/01/17 10:43:10;;;;;;;7.82;1.13;;;16.90;52.50;;;;;;6080834;23;20757;-83
2024/01/17 10:45:42;;;;;;;5.13;1.10;;;17.00;52.60;;;;;;6022602;23;20543;-83
2024/01/17 10:48:15;;;;;;;6.90;1.10;;;16.90;52.70;;;;;;5974339;23;20154;-83
2024/01/17 10:50:41;;;;;;;6.00;1.20;;;17.00;52.90;;;;;;5952931;23;20233;-83
2024/01/17 10:53:09;;;;;;;2.50;1.02;;;17.00;52.80;;;;;;6022856;23;20251;-84
2024/01/17 10:55:38;;;;;;;2.05;1.13;;;16.90;52.90;;;;;;5973693;23;20242;-82
2024/01/17 10:58:19;;;;;;;5.68;1.13;;;17.00;53.30;;;;;;6010339;23;20222;-82
2024/01/17 11:00:50;;;;;;;2.80;1.15;;;17.00;53.10;;;;;;6010297;23;20155;-81
2024/01/17 11:03:19;;;;;;;3.80;1.17;;;17.00;52.60;;;;;;6020017;23;20197;-83
2024/01/17 11:05:49;;;;;;;2.05;1.00;;;16.90;52.80;;;;;;6095003;23;20570;-83
2024/01/17 11:08:16;;;;;;;1.95;1.05;;;17.00;53.40;;;;;;6114940;23;20238;-83
2024/01/17 11:10:46;;;;;;;4.07;1.10;;;17.00;52.60;;;;;;6111563;23;20158;-83
2024/01/17 11:13:14;;;;;;;4.22;1.02;;;17.00;52.70;;;;;;6141493;23;20167;-83
2024/01/17 11:15:41;;;;;;;2.95;1.10;;;17.00;52.60;;;;;;6156436;22;20186;-83
2024/01/17 11:18:10;;;;;;;2.75;1.17;;;17.00;52.50;;;;;;6292975;22;20128;-83
2024/01/17 11:20:38;;;;;;;3.78;1.15;;;17.10;52.50;;;;;;6289799;22;20523;-83
2024/01/17 11:23:06;;;;;;;3.45;1.17;;;17.10;52.50;;;;;;6290777;22;20171;-83
2024/01/17 11:25:38;;;;;;;4.03;1.10;;;17.00;52.20;;;;;;6290176;22;20147;-84
2024/01/17 11:28:28;;;;;;;4.90;1.10;;;17.10;52.30;;;;;;6292965;22;20140;-82
2024/01/17 11:31:21;;;;;;;6.15;1.02;;;17.10;52.30;;;;;;6300405;22;20129;-83
2024/01/17 11:33:50;;;;;;;3.75;1.20;;;17.10;52.30;;;;;;6296758;22;20208;-83
2024/01/17 11:43:45;;;;;;;;;;;;;;;;;;;;;
2024/01/17 11:46:20;;;;;;;3.13;1.10;;;17.00;52.50;;;;;;6132029;23;20194;-83
2024/01/17 11:48:50;;;;;;;1.90;1.00;;;17.00;52.90;;;;;;6142781;23;20146;-82
2024/01/17 11:51:21;;;;;;;3.70;1.23;;;17.00;53.70;;;;;;6163227;23;20167;-83
2024/01/17 11:53:53;;;;;;;1.48;0.95;;;17.00;53.00;;;;;;6167403;23;20242;-82
2024/01/17 12:00:11;;;;;;;3.13;1.38;;;17.00;52.70;;;;;;6196304;23;20162;-83
2024/01/17 12:02:48;;;;;;;3.33;1.00;;;17.00;52.60;;;;;;6082474;23;20184;-83
2024/01/17 12:08:26;;;;;;;2.25;0.80;;;17.00;52.50;;;;;;6071556;23;20185;-84
2024/01/17 12:18:05;;;;;;;1.63;0.90;;;17.10;52.50;;;;;;6124732;23;20462;-82
2024/01/17 12:20:35;;;;;;;1.92;0.80;;;17.10;52.30;;;;;;6154184;23;20167;-82
2024/01/17 12:23:11;;;;;;;3.08;1.00;;;17.10;52.10;;;;;;6120560;23;20179;-81
2024/01/17 12:25:42;;;;;;;5.18;1.00;;;17.10;52.00;;;;;;6120946;23;20182;-82
2024/01/17 12:28:20;;;;;;;5.00;1.10;;;17.10;52.30;;;;;;6085836;23;20153;-82
2024/01/17 12:31:01;;;;;;;5.15;1.35;;;17.00;52.20;;;;;;6084452;23;20153;-82
2024/01/17 12:33:38;;;;;;;5.20;1.10;;;17.00;52.20;;;;;;6113256;23;20156;-82
2024/01/17 12:36:11;;;;;;;1.85;0.98;;;17.00;52.40;;;;;;6094046;23;20156;-81
2024/01/17 12:38:39;;;;;;;2.25;1.13;;;17.00;52.50;;;;;;6092316;23;20252;-82
2024/01/17 12:42:07;;;;;;;2.42;1.00;;;17.00;52.30;;;;;;6119131;23;20155;-81
2024/01/17 12:45:28;;;;;;;3.30;1.20;;;16.90;52.60;;;;;;5984137;23;20161;-83
2024/01/17 13:02:26;;;;;;;10.32;1.48;;;17.00;52.30;;;;;;5781897;24;20720;-81
2024/01/17 13:08:49;;;;;;;2.95;1.00;;;17.10;52.20;;;;;;5733497;24;20171;-82
2024/01/17 13:11:46;;;;;;;;;;;;;;;;;;;;;
2024/01/17 13:14:44;;;;;;;2.05;1.13;;;17.10;52.10;;;;;;5728362;25;20199;-81
2024/01/17 13:17:36;;;;;;;;;;;;;;;;;;;;;
2024/01/17 13:20:25;;;;;;;;;;;;;;;;;;;;;
2024/01/17 13:22:54;;;;;;;4.03;1.30;;;17.10;52.20;;;;;;5859244;24;20220;-81
2024/01/17 13:25:40;;;;;;;2.90;1.20;;;17.00;52.30;;;;;;5964279;24;20165;-82
2024/01/17 13:28:13;;;;;;;4.47;1.20;;;17.00;52.30;;;;;;6069506;23;20152;-81
2024/01/17 13:31:12;;;;;;;3.95;1.15;;;17.00;52.10;;;;;;6129181;23;20151;-84
2024/01/17 13:38:20;;;;;;;;;;;;;;;;;;;;;
2024/01/17 13:40:36;;;;;;;2.88;1.27;;;17.00;52.50;;;;;;6014433;23;20207;-82
2024/01/17 13:43:04;;;;;;;2.45;1.33;;;17.00;52.70;;;;;;5945281;24;20179;-82
2024/01/17 13:45:37;;;;;;;3.88;1.35;;;16.90;52.90;;;;;;5947813;24;20159;-82
2024/01/17 13:49:00;;;;;;;;;;;;;;;;;;;;;
2024/01/17 13:51:43;;;;;;;5.00;1.30;;;16.90;52.80;;;;;;5965896;24;20176;-81
2024/01/17 13:54:47;;;;;;;4.93;1.10;;;16.90;52.70;;;;;;5962666;24;20224;-83
2024/01/17 13:57:16;;;;;;;1.58;1.10;;;17.00;52.80;;;;;;5941914;24;20167;-81
2024/01/17 14:00:27;;;;;;;1.50;1.20;;;16.90;52.50;;;;;;5961258;24;20165;-82
2024/01/17 14:03:03;;;;;;;1.33;1.00;;;17.00;52.30;;;;;;5938177;24;20200;-83
2024/01/17 14:06:07;;;;;;;4.47;1.23;;;17.00;52.30;;;;;;5962894;24;20164;-84
2024/01/17 14:12:16;;;;;;;4.03;1.40;;;17.00;52.10;;;;;;5941495;24;20167;-85
2024/01/17 14:15:16;;;;;;;5.57;1.02;;;17.00;51.90;;;;;;5888028;24;20154;-85
2024/01/17 14:17:49;;;;;;;2.67;1.00;;;17.10;52.30;;;;;;5954059;24;20155;-82
2024/01/17 14:20:29;;;;;;;;;;;;;;;;;;;;;
2024/01/17 14:26:15;;;;;;;;;;;;;;;;;;;;;
2024/01/17 14:29:00;;;;;;;;;;;;;;;;;;;;;
2024/01/17 14:32:06;;;;;;;;;;;;;;;;;;;;;
2024/01/17 14:38:49;;;;;;;;;;;;;;;;;;;;;
2024/01/17 14:41:36;;;;;;;2.20;1.00;;;17.10;51.80;;;;;;5858648;24;20159;-82
2024/01/17 14:44:59;;;;;;;;;;;;;;;;;;;;;
2024/01/17 14:47:51;;;;;;;4.60;1.50;;;17.10;52.40;;;;;;5857079;24;20192;-84
2024/01/17 14:50:43;;;;;;;4.90;1.08;;;17.10;52.10;;;;;;5752673;24;20162;-84
2024/01/17 14:53:15;;;;;;;3.80;1.13;;;17.20;52.50;;;;;;5770178;24;20162;-83
2024/01/17 14:55:58;;;;;;;3.22;1.20;;;17.10;52.50;;;;;;5770477;24;20162;-83
2024/01/17 14:58:38;;;;;;;1.95;0.98;;;17.10;52.60;;;;;;5785792;24;20236;-83
2024/01/17 15:01:18;;;;;;;1.90;0.90;;;17.10;53.20;;;;;;5778167;24;20211;-83
2024/01/17 15:04:11;;;;;;;5.70;1.00;;;17.10;52.50;;;;;;5803843;24;20252;-82
2024/01/17 15:07:26;;;;;;;4.70;1.30;;;17.10;52.70;;;;;;5852604;24;20215;-82
2024/01/17 15:10:39;;;;;;;;;;;;;;;;;;;;;
2024/01/17 15:13:27;;;;;;;4.00;1.17;;;17.00;52.90;;;;;;5853537;24;20238;-85
2024/01/17 15:15:57;;;;;;;5.18;1.38;;;17.00;53.00;;;;;;5817556;24;20160;-84
2024/01/17 15:22:02;;;;;;;6.90;1.13;;;17.00;53.30;;;;;;5821078;24;20168;-85
2024/01/17 15:25:02;;;;;;;9.38;1.00;;;17.00;53.10;;;;;;5774662;24;20200;-83
2024/01/17 15:27:47;;;;;;;1.90;1.17;;;17.00;53.20;;;;;;5799063;24;20238;-84
2024/01/17 15:30:22;;;;;;;3.03;1.00;;;17.10;52.80;;;;;;5799589;24;20215;-82
2024/01/17 15:32:53;;;;;;;2.35;0.90;;;17.10;52.70;;;;;;5794102;24;20165;-86
2024/01/17 15:35:32;;;;;;;3.25;0.90;;;17.10;52.70;;;;;;5797742;24;20189;-84
2024/01/17 15:38:13;;;;;;;1.17;0.85;;;17.10;52.30;;;;;;5809050;24;20241;-85
2024/01/17 15:40:55;;;;;;;5.20;1.23;;;17.20;52.40;;;;;;5827392;24;20232;-84
2024/01/17 15:43:23;;;;;;;2.17;0.98;;;17.20;52.40;;;;;;5877892;24;20284;-83
2024/01/17 15:45:52;;;;;;;2.75;1.35;;;17.10;52.60;;;;;;5954667;23;20187;-83
2024/01/17 15:48:19;;;;;;;3.55;1.00;;;17.10;52.40;;;;;;6022702;23;20158;-82
2024/01/17 15:50:49;;;;;;;5.35;1.38;;;17.10;52.40;;;;;;5978533;23;20178;-84
2024/01/17 15:53:45;;;;;;;4.15;1.10;;;17.20;52.20;;;;;;5951428;23;20159;-82
2024/01/17 15:56:59;;;;;;;4.30;1.70;;;17.20;52.80;;;;;;6014921;23;20472;-84
2024/01/17 15:59:44;;;;;;;9.20;1.30;;;17.20;52.90;;;;;;6018010;23;20549;-78
2024/01/17 16:02:15;;;;;;;8.57;1.60;;;17.20;53.00;;;;;;6013242;23;20166;-79
2024/01/17 16:04:40;;;;;;;8.90;1.60;;;17.10;52.90;;;;;;5988008;24;20224;-83
2024/01/17 16:07:07;;;;;;;12.60;1.40;;;17.20;52.70;;;;;;5986343;24;20155;-79
2024/01/17 16:09:35;;;;;;;7.57;1.25;;;17.20;52.70;;;;;;6006191;23;20283;-84
2024/01/17 16:12:01;;;;;;;14.73;1.48;;;17.10;53.00;;;;;;5990508;23;20199;-81
2024/01/17 16:14:27;;;;;;;7.70;1.42;;;17.20;53.30;;;;;;6040978;23;20240;-81
2024/01/17 16:16:52;;;;;;;7.05;1.45;;;17.20;53.50;;;;;;6121495;22;20150;-81
2024/01/17 16:19:18;;;;;;;9.57;1.60;;;17.10;53.60;;;;;;6276938;22;20152;-80
2024/01/17 16:21:53;;;;;;;11.82;1.98;;;17.10;54.00;;;;;;6310917;22;20229;-82
2024/01/17 16:24:19;;;;;;;14.75;1.73;;;17.10;53.90;;;;;;6310542;22;20167;-79
2024/01/17 16:26:59;;;;;;;13.07;1.58;;;17.10;54.20;;;;;;6315340;22;20562;-80
2024/01/17 16:29:25;;;;;;;8.25;1.50;;;17.10;54.20;;;;;;6286680;22;20542;-79
2024/01/17 16:31:58;;;;;;;11.82;1.85;;;17.00;54.10;;;;;;6285372;22;20147;-80
2024/01/17 16:34:41;;;;;;;11.73;1.73;;;17.10;54.00;;;;;;6267130;22;20128;-81
2024/01/17 16:37:07;;;;;;;11.57;1.83;;;17.10;53.80;;;;;;6265350;22;20163;-79